sensor_id;sensor_type;location;lat;lon;timestamp;P1;durP1;ratioP1;P2;durP2;ratioP2
22030;SDS011;11179;52.106;21.024;2022-09-17T00:00:19;7.77;;;3.70;;
22030;SDS011;11179;52.106;21.024;2022-09-17T00:02:48;8.13;;;3.57;;
22030;SDS011;11179;52.106;21.024;2022-09-17T00:05:16;8.13;;;3.63;;
22030;SDS011;11179;52.106;21.024;2022-09-17T00:07:41;9.70;;;4.30;;
22030;SDS011;11179;52.106;21.024;2022-09-17T00:10:07;7.93;;;3.70;;
22030;SDS011;11179;52.106;21.024;2022-09-17T00:12:32;11.30;;;4.20;;
22030;SDS011;11179;52.106;21.024;2022-09-17T00:14:58;8.40;;;3.63;;
22030;SDS011;11179;52.106;21.024;2022-09-17T00:17:23;12.13;;;4.00;;
22030;SDS011;11179;52.106;21.024;2022-09-17T00:19:49;6.93;;;3.70;;
22030;SDS011;11179;52.106;21.024;2022-09-17T00:22:14;7.63;;;4.40;;
22030;SDS011;11179;52.106;21.024;2022-09-17T00:24:40;6.70;;;3.30;;
22030;SDS011;11179;52.106;21.024;2022-09-17T00:27:05;8.73;;;4.07;;
22030;SDS011;11179;52.106;21.024;2022-09-17T00:29:31;9.30;;;3.90;;
22030;SDS011;11179;52.106;21.024;2022-09-17T00:31:56;10.03;;;3.97;;
22030;SDS011;11179;52.106;21.024;2022-09-17T00:34:21;7.10;;;3.77;;
22030;SDS011;11179;52.106;21.024;2022-09-17T00:36:47;8.33;;;3.17;;
22030;SDS011;11179;52.106;21.024;2022-09-17T00:39:12;8.03;;;4.27;;
22030;SDS011;11179;52.106;21.024;2022-09-17T00:41:39;8.77;;;3.20;;
22030;SDS011;11179;52.106;21.024;2022-09-17T00:47:28;7.93;;;3.10;;
22030;SDS011;11179;52.106;21.024;2022-09-17T00:49:59;10.40;;;3.47;;
22030;SDS011;11179;52.106;21.024;2022-09-17T00:52:30;7.10;;;3.10;;
22030;SDS011;11179;52.106;21.024;2022-09-17T00:55:18;8.73;;;3.83;;
22030;SDS011;11179;52.106;21.024;2022-09-17T00:57:47;7.27;;;4.33;;
22030;SDS011;11179;52.106;21.024;2022-09-17T01:00:15;8.43;;;3.43;;
22030;SDS011;11179;52.106;21.024;2022-09-17T01:02:41;7.93;;;3.27;;
22030;SDS011;11179;52.106;21.024;2022-09-17T01:05:07;6.17;;;3.47;;
22030;SDS011;11179;52.106;21.024;2022-09-17T01:10:34;9.70;;;3.70;;
22030;SDS011;11179;52.106;21.024;2022-09-17T01:21:46;5.27;;;3.00;;
22030;SDS011;11179;52.106;21.024;2022-09-17T01:37:31;10.67;;;3.50;;
22030;SDS011;11179;52.106;21.024;2022-09-17T01:45:09;7.00;;;3.77;;
22030;SDS011;11179;52.106;21.024;2022-09-17T01:47:49;8.77;;;4.13;;
22030;SDS011;11179;52.106;21.024;2022-09-17T01:50:24;7.00;;;3.70;;
22030;SDS011;11179;52.106;21.024;2022-09-17T01:52:55;7.83;;;4.10;;
22030;SDS011;11179;52.106;21.024;2022-09-17T01:55:23;6.40;;;3.97;;
22030;SDS011;11179;52.106;21.024;2022-09-17T01:57:55;9.53;;;3.90;;
22030;SDS011;11179;52.106;21.024;2022-09-17T02:00:24;8.20;;;3.97;;
22030;SDS011;11179;52.106;21.024;2022-09-17T02:02:52;8.07;;;4.30;;
22030;SDS011;11179;52.106;21.024;2022-09-17T02:08:10;9.17;;;4.37;;
22030;SDS011;11179;52.106;21.024;2022-09-17T02:10:44;6.63;;;4.00;;
22030;SDS011;11179;52.106;21.024;2022-09-17T02:13:15;8.50;;;4.10;;
22030;SDS011;11179;52.106;21.024;2022-09-17T02:16:03;7.17;;;3.73;;
22030;SDS011;11179;52.106;21.024;2022-09-17T02:24:06;11.23;;;4.20;;
22030;SDS011;11179;52.106;21.024;2022-09-17T02:26:38;8.80;;;4.00;;
22030;SDS011;11179;52.106;21.024;2022-09-17T02:29:08;7.70;;;3.50;;
22030;SDS011;11179;52.106;21.024;2022-09-17T02:31:45;7.80;;;3.43;;
22030;SDS011;11179;52.106;21.024;2022-09-17T02:34:11;6.70;;;3.67;;
22030;SDS011;11179;52.106;21.024;2022-09-17T02:36:36;7.57;;;3.93;;
22030;SDS011;11179;52.106;21.024;2022-09-17T02:39:02;8.33;;;4.23;;
22030;SDS011;11179;52.106;21.024;2022-09-17T02:41:32;8.50;;;4.17;;
22030;SDS011;11179;52.106;21.024;2022-09-17T02:44:12;8.50;;;4.23;;
22030;SDS011;11179;52.106;21.024;2022-09-17T02:46:53;9.97;;;4.50;;
22030;SDS011;11179;52.106;21.024;2022-09-17T02:52:28;8.97;;;4.50;;
22030;SDS011;11179;52.106;21.024;2022-09-17T02:57:48;10.07;;;3.80;;
22030;SDS011;11179;52.106;21.024;2022-09-17T03:00:18;9.00;;;4.03;;
22030;SDS011;11179;52.106;21.024;2022-09-17T03:02:49;8.77;;;4.33;;
22030;SDS011;11179;52.106;21.024;2022-09-17T03:05:22;10.97;;;4.83;;
22030;SDS011;11179;52.106;21.024;2022-09-17T03:07:49;7.67;;;4.37;;
22030;SDS011;11179;52.106;21.024;2022-09-17T03:10:15;8.73;;;4.50;;
22030;SDS011;11179;52.106;21.024;2022-09-17T03:12:41;8.80;;;3.93;;
22030;SDS011;11179;52.106;21.024;2022-09-17T03:15:07;14.23;;;6.20;;
22030;SDS011;11179;52.106;21.024;2022-09-17T03:17:33;8.90;;;4.00;;
22030;SDS011;11179;52.106;21.024;2022-09-17T03:19:58;12.07;;;4.17;;
22030;SDS011;11179;52.106;21.024;2022-09-17T03:22:24;7.70;;;3.87;;
22030;SDS011;11179;52.106;21.024;2022-09-17T03:24:49;10.00;;;4.63;;
22030;SDS011;11179;52.106;21.024;2022-09-17T03:27:15;9.50;;;4.20;;
22030;SDS011;11179;52.106;21.024;2022-09-17T03:29:40;9.53;;;4.20;;
22030;SDS011;11179;52.106;21.024;2022-09-17T03:32:06;7.77;;;3.87;;
22030;SDS011;11179;52.106;21.024;2022-09-17T03:34:31;10.60;;;5.23;;
22030;SDS011;11179;52.106;21.024;2022-09-17T03:36:56;10.67;;;4.27;;
22030;SDS011;11179;52.106;21.024;2022-09-17T03:39:22;9.50;;;4.90;;
22030;SDS011;11179;52.106;21.024;2022-09-17T03:41:47;9.53;;;5.07;;
22030;SDS011;11179;52.106;21.024;2022-09-17T03:44:13;7.30;;;4.00;;
22030;SDS011;11179;52.106;21.024;2022-09-17T03:46:39;10.23;;;4.40;;
22030;SDS011;11179;52.106;21.024;2022-09-17T03:49:05;8.93;;;5.03;;
22030;SDS011;11179;52.106;21.024;2022-09-17T03:51:30;7.37;;;3.90;;
22030;SDS011;11179;52.106;21.024;2022-09-17T03:53:55;8.60;;;4.23;;
22030;SDS011;11179;52.106;21.024;2022-09-17T03:56:21;6.93;;;3.83;;
22030;SDS011;11179;52.106;21.024;2022-09-17T03:58:46;9.20;;;4.43;;
22030;SDS011;11179;52.106;21.024;2022-09-17T04:01:12;9.87;;;4.87;;
22030;SDS011;11179;52.106;21.024;2022-09-17T04:03:37;8.90;;;4.23;;
22030;SDS011;11179;52.106;21.024;2022-09-17T04:06:03;7.80;;;4.80;;
22030;SDS011;11179;52.106;21.024;2022-09-17T04:08:28;9.60;;;4.13;;
22030;SDS011;11179;52.106;21.024;2022-09-17T04:10:54;8.47;;;4.63;;
22030;SDS011;11179;52.106;21.024;2022-09-17T04:13:19;7.80;;;4.70;;
22030;SDS011;11179;52.106;21.024;2022-09-17T04:15:45;11.03;;;4.90;;
22030;SDS011;11179;52.106;21.024;2022-09-17T04:18:11;14.67;;;4.60;;
22030;SDS011;11179;52.106;21.024;2022-09-17T04:20:38;15.50;;;5.00;;
22030;SDS011;11179;52.106;21.024;2022-09-17T04:23:04;9.03;;;4.33;;
22030;SDS011;11179;52.106;21.024;2022-09-17T04:25:31;9.50;;;4.07;;
22030;SDS011;11179;52.106;21.024;2022-09-17T04:27:57;9.30;;;4.77;;
22030;SDS011;11179;52.106;21.024;2022-09-17T04:30:22;10.47;;;4.83;;
22030;SDS011;11179;52.106;21.024;2022-09-17T04:32:47;8.10;;;4.00;;
22030;SDS011;11179;52.106;21.024;2022-09-17T04:35:13;9.90;;;5.30;;
22030;SDS011;11179;52.106;21.024;2022-09-17T04:37:39;9.47;;;4.40;;
22030;SDS011;11179;52.106;21.024;2022-09-17T04:40:05;10.03;;;4.27;;
22030;SDS011;11179;52.106;21.024;2022-09-17T04:42:31;8.33;;;4.90;;
22030;SDS011;11179;52.106;21.024;2022-09-17T04:44:56;13.73;;;4.70;;
22030;SDS011;11179;52.106;21.024;2022-09-17T04:47:22;11.03;;;4.40;;
22030;SDS011;11179;52.106;21.024;2022-09-17T04:49:47;10.00;;;4.40;;
22030;SDS011;11179;52.106;21.024;2022-09-17T04:52:13;11.77;;;5.57;;
22030;SDS011;11179;52.106;21.024;2022-09-17T04:54:38;13.30;;;4.67;;
22030;SDS011;11179;52.106;21.024;2022-09-17T04:57:04;10.10;;;4.23;;
22030;SDS011;11179;52.106;21.024;2022-09-17T04:59:29;7.63;;;4.53;;
22030;SDS011;11179;52.106;21.024;2022-09-17T05:01:55;9.40;;;4.23;;
22030;SDS011;11179;52.106;21.024;2022-09-17T05:04:20;7.23;;;4.17;;
22030;SDS011;11179;52.106;21.024;2022-09-17T05:06:45;12.87;;;4.30;;
22030;SDS011;11179;52.106;21.024;2022-09-17T05:09:11;8.20;;;4.70;;
22030;SDS011;11179;52.106;21.024;2022-09-17T05:11:36;8.33;;;4.40;;
22030;SDS011;11179;52.106;21.024;2022-09-17T05:14:01;11.27;;;4.23;;
22030;SDS011;11179;52.106;21.024;2022-09-17T05:16:27;10.73;;;3.97;;
22030;SDS011;11179;52.106;21.024;2022-09-17T05:18:52;7.73;;;4.23;;
22030;SDS011;11179;52.106;21.024;2022-09-17T05:21:18;10.20;;;3.83;;
22030;SDS011;11179;52.106;21.024;2022-09-17T05:23:44;12.10;;;3.10;;
22030;SDS011;11179;52.106;21.024;2022-09-17T05:26:10;11.00;;;3.50;;
22030;SDS011;11179;52.106;21.024;2022-09-17T05:28:35;9.23;;;4.00;;
22030;SDS011;11179;52.106;21.024;2022-09-17T05:31:01;6.17;;;3.20;;
22030;SDS011;11179;52.106;21.024;2022-09-17T05:33:27;9.43;;;3.10;;
22030;SDS011;11179;52.106;21.024;2022-09-17T05:35:53;5.93;;;3.20;;
22030;SDS011;11179;52.106;21.024;2022-09-17T05:38:18;22.87;;;4.93;;
22030;SDS011;11179;52.106;21.024;2022-09-17T05:40:44;10.13;;;3.33;;
22030;SDS011;11179;52.106;21.024;2022-09-17T05:43:10;7.90;;;2.53;;
22030;SDS011;11179;52.106;21.024;2022-09-17T05:45:36;13.80;;;3.27;;
22030;SDS011;11179;52.106;21.024;2022-09-17T05:48:02;12.40;;;3.73;;
22030;SDS011;11179;52.106;21.024;2022-09-17T05:50:29;8.70;;;2.90;;
22030;SDS011;11179;52.106;21.024;2022-09-17T05:52:55;36.23;;;3.77;;
22030;SDS011;11179;52.106;21.024;2022-09-17T05:55:21;11.13;;;2.70;;
22030;SDS011;11179;52.106;21.024;2022-09-17T05:57:50;7.80;;;2.73;;
22030;SDS011;11179;52.106;21.024;2022-09-17T06:00:16;5.27;;;2.20;;
22030;SDS011;11179;52.106;21.024;2022-09-17T06:02:42;8.83;;;2.80;;
22030;SDS011;11179;52.106;21.024;2022-09-17T06:05:08;14.50;;;3.17;;
22030;SDS011;11179;52.106;21.024;2022-09-17T06:07:34;14.47;;;2.40;;
22030;SDS011;11179;52.106;21.024;2022-09-17T06:10:01;5.90;;;1.90;;
22030;SDS011;11179;52.106;21.024;2022-09-17T06:12:27;4.37;;;1.80;;
22030;SDS011;11179;52.106;21.024;2022-09-17T06:14:53;5.87;;;2.67;;
22030;SDS011;11179;52.106;21.024;2022-09-17T06:17:18;14.53;;;3.50;;
22030;SDS011;11179;52.106;21.024;2022-09-17T06:19:43;9.03;;;2.40;;
22030;SDS011;11179;52.106;21.024;2022-09-17T06:22:09;5.30;;;2.10;;
22030;SDS011;11179;52.106;21.024;2022-09-17T06:24:34;6.30;;;2.20;;
22030;SDS011;11179;52.106;21.024;2022-09-17T06:27:00;4.40;;;1.80;;
22030;SDS011;11179;52.106;21.024;2022-09-17T06:29:25;8.00;;;2.20;;
22030;SDS011;11179;52.106;21.024;2022-09-17T06:31:51;7.03;;;3.00;;
22030;SDS011;11179;52.106;21.024;2022-09-17T06:34:18;7.13;;;2.03;;
22030;SDS011;11179;52.106;21.024;2022-09-17T06:36:43;3.93;;;1.60;;
22030;SDS011;11179;52.106;21.024;2022-09-17T06:39:09;8.40;;;2.30;;
22030;SDS011;11179;52.106;21.024;2022-09-17T06:41:35;6.93;;;2.00;;
22030;SDS011;11179;52.106;21.024;2022-09-17T06:44:02;6.03;;;2.27;;
22030;SDS011;11179;52.106;21.024;2022-09-17T06:46:27;7.50;;;2.00;;
22030;SDS011;11179;52.106;21.024;2022-09-17T06:48:53;10.43;;;2.07;;
22030;SDS011;11179;52.106;21.024;2022-09-17T06:51:18;5.20;;;1.80;;
22030;SDS011;11179;52.106;21.024;2022-09-17T06:53:43;7.53;;;1.93;;
22030;SDS011;11179;52.106;21.024;2022-09-17T06:56:09;6.70;;;1.80;;
22030;SDS011;11179;52.106;21.024;2022-09-17T06:58:35;11.10;;;2.00;;
22030;SDS011;11179;52.106;21.024;2022-09-17T07:01:01;12.93;;;2.63;;
22030;SDS011;11179;52.106;21.024;2022-09-17T07:03:28;6.60;;;1.70;;
22030;SDS011;11179;52.106;21.024;2022-09-17T07:05:55;4.30;;;1.57;;
22030;SDS011;11179;52.106;21.024;2022-09-17T07:08:21;8.07;;;2.00;;
22030;SDS011;11179;52.106;21.024;2022-09-17T07:10:47;7.47;;;2.40;;
22030;SDS011;11179;52.106;21.024;2022-09-17T07:13:12;7.03;;;1.63;;
22030;SDS011;11179;52.106;21.024;2022-09-17T07:15:38;8.30;;;2.63;;
22030;SDS011;11179;52.106;21.024;2022-09-17T07:18:09;9.33;;;2.47;;
22030;SDS011;11179;52.106;21.024;2022-09-17T07:20:36;11.70;;;2.53;;
22030;SDS011;11179;52.106;21.024;2022-09-17T07:23:01;7.57;;;2.47;;
22030;SDS011;11179;52.106;21.024;2022-09-17T07:25:27;8.40;;;1.80;;
22030;SDS011;11179;52.106;21.024;2022-09-17T07:27:52;5.30;;;1.97;;
22030;SDS011;11179;52.106;21.024;2022-09-17T07:30:18;6.10;;;2.03;;
22030;SDS011;11179;52.106;21.024;2022-09-17T07:32:44;5.67;;;2.30;;
22030;SDS011;11179;52.106;21.024;2022-09-17T07:35:10;4.47;;;2.10;;
22030;SDS011;11179;52.106;21.024;2022-09-17T07:37:36;5.83;;;2.10;;
22030;SDS011;11179;52.106;21.024;2022-09-17T07:40:02;6.37;;;1.87;;
22030;SDS011;11179;52.106;21.024;2022-09-17T07:42:30;6.63;;;2.10;;
22030;SDS011;11179;52.106;21.024;2022-09-17T07:44:56;8.70;;;1.97;;
22030;SDS011;11179;52.106;21.024;2022-09-17T07:47:21;6.33;;;2.13;;
22030;SDS011;11179;52.106;21.024;2022-09-17T07:49:47;9.10;;;2.47;;
22030;SDS011;11179;52.106;21.024;2022-09-17T07:52:12;11.80;;;2.40;;
22030;SDS011;11179;52.106;21.024;2022-09-17T07:54:37;5.77;;;2.23;;
22030;SDS011;11179;52.106;21.024;2022-09-17T07:57:03;9.13;;;2.50;;
22030;SDS011;11179;52.106;21.024;2022-09-17T07:59:28;8.20;;;2.50;;
22030;SDS011;11179;52.106;21.024;2022-09-17T08:01:54;6.60;;;2.17;;
22030;SDS011;11179;52.106;21.024;2022-09-17T08:04:19;5.50;;;2.00;;
22030;SDS011;11179;52.106;21.024;2022-09-17T08:06:45;8.60;;;2.70;;
22030;SDS011;11179;52.106;21.024;2022-09-17T08:09:12;4.40;;;2.10;;
22030;SDS011;11179;52.106;21.024;2022-09-17T08:11:39;6.60;;;2.00;;
22030;SDS011;11179;52.106;21.024;2022-09-17T08:14:05;6.60;;;2.50;;
22030;SDS011;11179;52.106;21.024;2022-09-17T08:16:30;8.70;;;2.77;;
22030;SDS011;11179;52.106;21.024;2022-09-17T08:18:56;8.90;;;1.60;;
22030;SDS011;11179;52.106;21.024;2022-09-17T08:21:21;5.23;;;1.83;;
22030;SDS011;11179;52.106;21.024;2022-09-17T08:23:47;7.83;;;2.00;;
22030;SDS011;11179;52.106;21.024;2022-09-17T08:26:16;11.50;;;2.50;;
22030;SDS011;11179;52.106;21.024;2022-09-17T08:28:45;8.80;;;2.23;;
22030;SDS011;11179;52.106;21.024;2022-09-17T08:31:11;8.80;;;2.00;;
22030;SDS011;11179;52.106;21.024;2022-09-17T08:33:38;6.27;;;3.03;;
22030;SDS011;11179;52.106;21.024;2022-09-17T08:36:05;5.50;;;2.47;;
22030;SDS011;11179;52.106;21.024;2022-09-17T08:38:32;8.57;;;2.03;;
22030;SDS011;11179;52.106;21.024;2022-09-17T08:46:11;4.70;;;2.20;;
22030;SDS011;11179;52.106;21.024;2022-09-17T08:48:57;6.03;;;2.03;;
22030;SDS011;11179;52.106;21.024;2022-09-17T08:54:26;4.73;;;2.37;;
22030;SDS011;11179;52.106;21.024;2022-09-17T09:00:13;7.23;;;2.23;;
22030;SDS011;11179;52.106;21.024;2022-09-17T09:05:20;8.80;;;2.50;;
22030;SDS011;11179;52.106;21.024;2022-09-17T09:08:02;11.87;;;2.30;;
22030;SDS011;11179;52.106;21.024;2022-09-17T09:10:38;7.03;;;2.10;;
22030;SDS011;11179;52.106;21.024;2022-09-17T09:13:14;8.87;;;2.63;;
22030;SDS011;11179;52.106;21.024;2022-09-17T09:15:43;8.40;;;2.47;;
22030;SDS011;11179;52.106;21.024;2022-09-17T09:18:21;5.17;;;2.10;;
22030;SDS011;11179;52.106;21.024;2022-09-17T09:20:50;3.60;;;1.80;;
22030;SDS011;11179;52.106;21.024;2022-09-17T09:25:52;7.07;;;2.07;;
22030;SDS011;11179;52.106;21.024;2022-09-17T09:28:41;7.50;;;2.90;;
22030;SDS011;11179;52.106;21.024;2022-09-17T09:31:17;4.70;;;1.70;;
22030;SDS011;11179;52.106;21.024;2022-09-17T09:33:50;5.77;;;1.80;;
22030;SDS011;11179;52.106;21.024;2022-09-17T09:36:16;7.10;;;2.27;;
22030;SDS011;11179;52.106;21.024;2022-09-17T09:38:49;5.30;;;2.10;;
22030;SDS011;11179;52.106;21.024;2022-09-17T09:41:25;7.47;;;2.50;;
22030;SDS011;11179;52.106;21.024;2022-09-17T09:44:10;8.80;;;2.67;;
22030;SDS011;11179;52.106;21.024;2022-09-17T10:01:00;5.00;;;2.07;;
22030;SDS011;11179;52.106;21.024;2022-09-17T10:03:27;5.27;;;2.10;;
22030;SDS011;11179;52.106;21.024;2022-09-17T10:08:22;5.63;;;2.10;;
22030;SDS011;11179;52.106;21.024;2022-09-17T10:10:52;6.77;;;2.33;;
22030;SDS011;11179;52.106;21.024;2022-09-17T10:13:27;6.13;;;1.80;;
22030;SDS011;11179;52.106;21.024;2022-09-17T10:15:54;4.50;;;2.00;;
22030;SDS011;11179;52.106;21.024;2022-09-17T10:18:23;5.33;;;1.97;;
22030;SDS011;11179;52.106;21.024;2022-09-17T10:20:50;5.93;;;2.00;;
22030;SDS011;11179;52.106;21.024;2022-09-17T10:23:16;5.90;;;1.87;;
22030;SDS011;11179;52.106;21.024;2022-09-17T10:25:43;5.00;;;2.10;;
22030;SDS011;11179;52.106;21.024;2022-09-17T10:31:10;4.90;;;2.00;;
22030;SDS011;11179;52.106;21.024;2022-09-17T10:33:58;6.30;;;2.40;;
22030;SDS011;11179;52.106;21.024;2022-09-17T10:36:37;6.27;;;2.17;;
22030;SDS011;11179;52.106;21.024;2022-09-17T10:41:54;7.77;;;3.00;;
22030;SDS011;11179;52.106;21.024;2022-09-17T10:44:34;4.73;;;2.07;;
22030;SDS011;11179;52.106;21.024;2022-09-17T10:47:23;5.87;;;2.40;;
22030;SDS011;11179;52.106;21.024;2022-09-17T10:49:52;5.53;;;1.93;;
22030;SDS011;11179;52.106;21.024;2022-09-17T10:52:39;4.47;;;1.90;;
22030;SDS011;11179;52.106;21.024;2022-09-17T10:58:01;4.40;;;2.17;;
22030;SDS011;11179;52.106;21.024;2022-09-17T11:00:29;11.67;;;2.40;;
22030;SDS011;11179;52.106;21.024;2022-09-17T11:06:05;7.43;;;1.93;;
22030;SDS011;11179;52.106;21.024;2022-09-17T11:25:54;3.70;;;1.83;;
22030;SDS011;11179;52.106;21.024;2022-09-17T11:28:15;4.10;;;1.67;;
22030;SDS011;11179;52.106;21.024;2022-09-17T11:33:59;5.10;;;2.53;;
22030;SDS011;11179;52.106;21.024;2022-09-17T11:36:45;5.50;;;2.00;;
22030;SDS011;11179;52.106;21.024;2022-09-17T11:39:20;4.03;;;1.90;;
22030;SDS011;11179;52.106;21.024;2022-09-17T11:41:52;5.40;;;1.93;;
22030;SDS011;11179;52.106;21.024;2022-09-17T11:47:17;5.50;;;2.37;;
22030;SDS011;11179;52.106;21.024;2022-09-17T11:49:54;5.70;;;1.80;;
22030;SDS011;11179;52.106;21.024;2022-09-17T11:52:25;6.23;;;1.80;;
22030;SDS011;11179;52.106;21.024;2022-09-17T11:54:57;5.67;;;1.63;;
22030;SDS011;11179;52.106;21.024;2022-09-17T11:57:30;6.60;;;2.07;;
22030;SDS011;11179;52.106;21.024;2022-09-17T12:16:36;4.50;;;1.60;;
22030;SDS011;11179;52.106;21.024;2022-09-17T12:21:36;5.23;;;1.77;;
22030;SDS011;11179;52.106;21.024;2022-09-17T12:24:17;4.10;;;1.60;;
22030;SDS011;11179;52.106;21.024;2022-09-17T12:26:53;4.90;;;1.90;;
22030;SDS011;11179;52.106;21.024;2022-09-17T12:34:57;4.47;;;1.90;;
22030;SDS011;11179;52.106;21.024;2022-09-17T12:37:37;3.40;;;1.40;;
22030;SDS011;11179;52.106;21.024;2022-09-17T12:40:27;4.70;;;1.70;;
22030;SDS011;11179;52.106;21.024;2022-09-17T12:45:50;4.50;;;2.00;;
22030;SDS011;11179;52.106;21.024;2022-09-17T12:57:20;3.80;;;1.60;;
22030;SDS011;11179;52.106;21.024;2022-09-17T12:59:57;6.87;;;1.73;;
22030;SDS011;11179;52.106;21.024;2022-09-17T13:03:04;4.63;;;1.80;;
22030;SDS011;11179;52.106;21.024;2022-09-17T13:13:39;4.13;;;1.80;;
22030;SDS011;11179;52.106;21.024;2022-09-17T13:18:59;4.70;;;1.80;;
22030;SDS011;11179;52.106;21.024;2022-09-17T13:24:13;5.30;;;2.30;;
22030;SDS011;11179;52.106;21.024;2022-09-17T13:26:49;5.90;;;2.40;;
22030;SDS011;11179;52.106;21.024;2022-09-17T13:32:07;12.87;;;2.70;;
22030;SDS011;11179;52.106;21.024;2022-09-17T13:34:33;5.13;;;2.07;;
22030;SDS011;11179;52.106;21.024;2022-09-17T13:37:00;5.60;;;2.00;;
22030;SDS011;11179;52.106;21.024;2022-09-17T13:39:45;4.83;;;2.27;;
22030;SDS011;11179;52.106;21.024;2022-09-17T13:42:22;5.50;;;2.33;;
22030;SDS011;11179;52.106;21.024;2022-09-17T13:45:08;7.87;;;2.47;;
22030;SDS011;11179;52.106;21.024;2022-09-17T13:47:56;5.03;;;1.83;;
22030;SDS011;11179;52.106;21.024;2022-09-17T13:52:48;5.60;;;2.40;;
22030;SDS011;11179;52.106;21.024;2022-09-17T14:00:53;5.63;;;2.17;;
22030;SDS011;11179;52.106;21.024;2022-09-17T14:19:03;5.67;;;2.73;;
22030;SDS011;11179;52.106;21.024;2022-09-17T14:35:37;9.33;;;4.00;;
22030;SDS011;11179;52.106;21.024;2022-09-17T14:38:12;6.43;;;2.80;;
22030;SDS011;11179;52.106;21.024;2022-09-17T14:40:44;8.47;;;3.67;;
22030;SDS011;11179;52.106;21.024;2022-09-17T14:43:28;8.60;;;3.33;;
22030;SDS011;11179;52.106;21.024;2022-09-17T14:45:57;5.63;;;2.90;;
22030;SDS011;11179;52.106;21.024;2022-09-17T14:53:47;12.00;;;3.50;;
22030;SDS011;11179;52.106;21.024;2022-09-17T14:56:15;7.87;;;3.77;;
22030;SDS011;11179;52.106;21.024;2022-09-17T14:58:50;6.90;;;3.70;;
22030;SDS011;11179;52.106;21.024;2022-09-17T15:06:36;7.60;;;3.17;;
22030;SDS011;11179;52.106;21.024;2022-09-17T15:09:02;7.20;;;2.97;;
22030;SDS011;11179;52.106;21.024;2022-09-17T15:11:28;5.30;;;2.83;;
22030;SDS011;11179;52.106;21.024;2022-09-17T15:13:57;10.50;;;2.93;;
22030;SDS011;11179;52.106;21.024;2022-09-17T15:16:25;6.90;;;2.50;;
22030;SDS011;11179;52.106;21.024;2022-09-17T15:18:52;5.67;;;2.70;;
22030;SDS011;11179;52.106;21.024;2022-09-17T15:23:51;7.63;;;3.00;;
22030;SDS011;11179;52.106;21.024;2022-09-17T15:26:22;7.13;;;2.87;;
22030;SDS011;11179;52.106;21.024;2022-09-17T15:28:52;5.60;;;2.70;;
22030;SDS011;11179;52.106;21.024;2022-09-17T15:31:20;5.53;;;2.63;;
22030;SDS011;11179;52.106;21.024;2022-09-17T15:33:46;7.63;;;3.17;;
22030;SDS011;11179;52.106;21.024;2022-09-17T15:38:47;5.40;;;2.60;;
22030;SDS011;11179;52.106;21.024;2022-09-17T15:43:48;7.97;;;2.90;;
22030;SDS011;11179;52.106;21.024;2022-09-17T15:46:25;5.43;;;2.33;;
22030;SDS011;11179;52.106;21.024;2022-09-17T15:48:57;5.73;;;3.43;;
22030;SDS011;11179;52.106;21.024;2022-09-17T15:51:33;7.23;;;3.90;;
22030;SDS011;11179;52.106;21.024;2022-09-17T15:54:03;7.77;;;3.50;;
22030;SDS011;11179;52.106;21.024;2022-09-17T15:56:33;6.00;;;3.20;;
22030;SDS011;11179;52.106;21.024;2022-09-17T15:59:02;8.73;;;2.97;;
22030;SDS011;11179;52.106;21.024;2022-09-17T16:11:18;4.70;;;2.50;;
22030;SDS011;11179;52.106;21.024;2022-09-17T16:13:45;6.47;;;3.23;;
22030;SDS011;11179;52.106;21.024;2022-09-17T16:16:15;5.87;;;3.10;;
22030;SDS011;11179;52.106;21.024;2022-09-17T16:18:42;6.47;;;3.63;;
22030;SDS011;11179;52.106;21.024;2022-09-17T16:21:11;7.67;;;3.80;;
22030;SDS011;11179;52.106;21.024;2022-09-17T16:23:40;7.80;;;3.77;;
22030;SDS011;11179;52.106;21.024;2022-09-17T16:26:08;5.97;;;3.67;;
22030;SDS011;11179;52.106;21.024;2022-09-17T16:28:37;7.27;;;4.30;;
22030;SDS011;11179;52.106;21.024;2022-09-17T16:31:03;7.73;;;4.03;;
22030;SDS011;11179;52.106;21.024;2022-09-17T16:33:29;9.73;;;5.60;;
22030;SDS011;11179;52.106;21.024;2022-09-17T16:35:57;8.70;;;5.43;;
22030;SDS011;11179;52.106;21.024;2022-09-17T16:38:23;9.33;;;5.90;;
22030;SDS011;11179;52.106;21.024;2022-09-17T16:40:50;10.00;;;5.30;;
22030;SDS011;11179;52.106;21.024;2022-09-17T16:43:15;9.63;;;5.87;;
22030;SDS011;11179;52.106;21.024;2022-09-17T16:45:42;9.83;;;4.93;;
22030;SDS011;11179;52.106;21.024;2022-09-17T16:48:08;11.07;;;5.30;;
22030;SDS011;11179;52.106;21.024;2022-09-17T16:50:33;9.90;;;5.40;;
22030;SDS011;11179;52.106;21.024;2022-09-17T16:52:59;9.37;;;5.90;;
22030;SDS011;11179;52.106;21.024;2022-09-17T16:55:25;11.43;;;5.80;;
22030;SDS011;11179;52.106;21.024;2022-09-17T16:57:50;12.53;;;5.53;;
22030;SDS011;11179;52.106;21.024;2022-09-17T17:00:17;10.73;;;4.87;;
22030;SDS011;11179;52.106;21.024;2022-09-17T17:02:50;10.00;;;4.93;;
22030;SDS011;11179;52.106;21.024;2022-09-17T17:05:17;8.20;;;4.87;;
22030;SDS011;11179;52.106;21.024;2022-09-17T17:07:42;12.00;;;6.00;;
22030;SDS011;11179;52.106;21.024;2022-09-17T17:10:08;11.23;;;6.10;;
22030;SDS011;11179;52.106;21.024;2022-09-17T17:12:34;16.87;;;7.60;;
22030;SDS011;11179;52.106;21.024;2022-09-17T17:15:00;19.50;;;10.60;;
22030;SDS011;11179;52.106;21.024;2022-09-17T17:17:26;17.87;;;10.10;;
22030;SDS011;11179;52.106;21.024;2022-09-17T17:19:52;18.10;;;10.20;;
22030;SDS011;11179;52.106;21.024;2022-09-17T17:22:18;18.73;;;9.00;;
22030;SDS011;11179;52.106;21.024;2022-09-17T17:24:43;17.00;;;8.20;;
22030;SDS011;11179;52.106;21.024;2022-09-17T17:27:09;15.83;;;7.57;;
22030;SDS011;11179;52.106;21.024;2022-09-17T17:29:34;17.10;;;8.90;;
22030;SDS011;11179;52.106;21.024;2022-09-17T17:32:01;14.73;;;6.33;;
22030;SDS011;11179;52.106;21.024;2022-09-17T17:34:27;14.60;;;7.70;;
22030;SDS011;11179;52.106;21.024;2022-09-17T17:36:53;14.90;;;7.83;;
22030;SDS011;11179;52.106;21.024;2022-09-17T17:39:18;14.57;;;8.30;;
22030;SDS011;11179;52.106;21.024;2022-09-17T17:41:44;19.50;;;9.03;;
22030;SDS011;11179;52.106;21.024;2022-09-17T17:44:09;20.37;;;10.57;;
22030;SDS011;11179;52.106;21.024;2022-09-17T17:46:38;17.13;;;9.60;;
22030;SDS011;11179;52.106;21.024;2022-09-17T17:49:04;20.00;;;9.53;;
22030;SDS011;11179;52.106;21.024;2022-09-17T17:51:29;27.53;;;11.67;;
22030;SDS011;11179;52.106;21.024;2022-09-17T17:53:55;20.60;;;10.40;;
22030;SDS011;11179;52.106;21.024;2022-09-17T17:56:20;25.47;;;10.17;;
22030;SDS011;11179;52.106;21.024;2022-09-17T17:58:45;18.37;;;10.60;;
22030;SDS011;11179;52.106;21.024;2022-09-17T18:01:13;20.13;;;10.67;;
22030;SDS011;11179;52.106;21.024;2022-09-17T18:03:46;19.40;;;10.60;;
22030;SDS011;11179;52.106;21.024;2022-09-17T18:06:12;19.00;;;10.80;;
22030;SDS011;11179;52.106;21.024;2022-09-17T18:08:38;22.43;;;10.87;;
22030;SDS011;11179;52.106;21.024;2022-09-17T18:11:06;22.73;;;11.20;;
22030;SDS011;11179;52.106;21.024;2022-09-17T18:13:33;22.43;;;11.70;;
22030;SDS011;11179;52.106;21.024;2022-09-17T18:16:00;21.77;;;11.60;;
22030;SDS011;11179;52.106;21.024;2022-09-17T18:18:36;21.50;;;10.97;;
22030;SDS011;11179;52.106;21.024;2022-09-17T18:21:04;22.10;;;11.83;;
22030;SDS011;11179;52.106;21.024;2022-09-17T18:23:32;24.33;;;11.83;;
22030;SDS011;11179;52.106;21.024;2022-09-17T18:25:59;29.93;;;15.10;;
22030;SDS011;11179;52.106;21.024;2022-09-17T18:28:26;25.57;;;14.40;;
22030;SDS011;11179;52.106;21.024;2022-09-17T18:30:53;27.50;;;12.60;;
22030;SDS011;11179;52.106;21.024;2022-09-17T18:33:19;26.50;;;14.23;;